Vestborg — E5U2070 — position and weather

sailwx.info

Track history (hours):
 
Tides and Currents Weather Stations Pressure Air Temp Water Temp Dewpoint Dewpoint Depression Visibility Wind Speed Wind Dir Waves Ship Positions

Vestborg

Last reported at 2014-Oct-28 20:33 UTC. Time now 2014-Oct-30 12:19 UTC.
Position N 69°43' E 019°04'.

Length 66 m; draft 4.6 m.

Type: Cargo ship. MMSI: 518120000.

Date/timePositionNaut miles runAvg speedWind from/ knotsBaromVisibWave heightAir tempDewpointWater temp
2014-Oct-28 20:33N 69°43' E 019°04'4 4.0
2014-Oct-28 19:33N 69°39' E 018°58'0 0.0
2014-Oct-28 18:33N 69°39' E 018°58'0 0.0
2014-Oct-28 17:34N 69°39' E 018°58'3 2.9
2014-Oct-28 16:33N 69°42' E 019°01'0 0.0
2014-Oct-28 15:32N 69°42' E 019°01'0 0.0
2014-Oct-28 14:33N 69°42' E 019°01'0 0.0
2014-Oct-28 13:30N 69°42' E 019°01'0 0.0
2014-Oct-28 12:33N 69°42' E 019°01'0 0.0
2014-Oct-28 11:33N 69°42' E 019°01'0 0.0
2014-Oct-28 10:27N 69°42' E 019°01'0 0.0
2014-Oct-28 09:33N 69°42' E 019°01'0 0.0
2014-Oct-28 08:33N 69°42' E 019°01'0 0.0
2014-Oct-28 07:32N 69°42' E 019°01'  
2014-Oct-23 20:10N 69°45' E 019°06'6 9.3
2014-Oct-23 19:34N 69°40' E 018°59'0 0.1
2014-Oct-23 18:33N 69°40' E 018°58'0 0.0
2014-Oct-23 17:33N 69°40' E 018°58'0 0.0
2014-Oct-23 16:33N 69°40' E 018°58'0 0.0
2014-Oct-23 15:33N 69°40' E 018°58'3 2.6
2014-Oct-23 14:33N 69°37' E 018°55'  
2014-Oct-21 04:14N 69°34' E 018°45'5 7.4
2014-Oct-21 03:33N 69°37' E 018°55'8 7.6
2014-Oct-21 02:33N 69°44' E 019°04'2 0.2
2014-Oct-20 12:33N 69°42' E 019°01'0 0.1
2014-Oct-20 11:33N 69°42' E 019°01'0 0.0
2014-Oct-20 10:32N 69°42' E 019°01'0 0.1
2014-Oct-20 09:33N 69°42' E 019°01'0 0.0
2014-Oct-20 08:33N 69°42' E 019°01'0 0.0
2014-Oct-20 07:33N 69°42' E 019°01'0 0.0
2014-Oct-20 06:33N 69°42' E 019°01'0 0.0
2014-Oct-20 05:33N 69°42' E 019°01'0 0.0
2014-Oct-20 04:33N 69°42' E 019°01'0 0.0
2014-Oct-20 03:33N 69°42' E 019°01'0 0.0
2014-Oct-20 02:33N 69°42' E 019°01'0 0.0
2014-Oct-20 01:33N 69°42' E 019°01'0 0.0
2014-Oct-20 00:33N 69°42' E 019°01'0 0.0
2014-Oct-19 23:33N 69°42' E 019°01'0 0.0
2014-Oct-19 22:33N 69°42' E 019°01'0 0.0
2014-Oct-19 21:33N 69°42' E 019°01'0 0.0
2014-Oct-19 20:33N 69°42' E 019°01'0 0.0
2014-Oct-19 19:33N 69°42' E 019°01'  
Track history (hours):
 
Tides and Currents Weather Stations Pressure Air Temp Water Temp Dewpoint Dewpoint Depression Visibility Wind Speed Wind Dir Waves Ship Positions

Vestborg

Last reported at 2014-Oct-28 20:33 UTC. Time now 2014-Oct-30 12:19 UTC.
Position N 69°43' E 019°04'.

Length 66 m; draft 4.6 m.

Type: Cargo ship. MMSI: 518120000.

Date/timePositionNaut miles runAvg speedWind from/ knotsBaromVisibWave heightAir tempDewpointWater temp
2014-Oct-28 20:33N 69°43' E 019°04'4 4.0
2014-Oct-28 19:33N 69°39' E 018°58'0 0.0
2014-Oct-28 18:33N 69°39' E 018°58'0 0.0
2014-Oct-28 17:34N 69°39' E 018°58'3 2.9
2014-Oct-28 16:33N 69°42' E 019°01'0 0.0
2014-Oct-28 15:32N 69°42' E 019°01'0 0.0
2014-Oct-28 14:33N 69°42' E 019°01'0 0.0
2014-Oct-28 13:30N 69°42' E 019°01'0 0.0
2014-Oct-28 12:33N 69°42' E 019°01'0 0.0
2014-Oct-28 11:33N 69°42' E 019°01'0 0.0
2014-Oct-28 10:27N 69°42' E 019°01'0 0.0
2014-Oct-28 09:33N 69°42' E 019°01'0 0.0
2014-Oct-28 08:33N 69°42' E 019°01'0 0.0
2014-Oct-28 07:32N 69°42' E 019°01'  
2014-Oct-23 20:10N 69°45' E 019°06'6 9.3
2014-Oct-23 19:34N 69°40' E 018°59'0 0.1
2014-Oct-23 18:33N 69°40' E 018°58'0 0.0
2014-Oct-23 17:33N 69°40' E 018°58'0 0.0
2014-Oct-23 16:33N 69°40' E 018°58'0 0.0
2014-Oct-23 15:33N 69°40' E 018°58'3 2.6
2014-Oct-23 14:33N 69°37' E 018°55'  
2014-Oct-21 04:14N 69°34' E 018°45'5 7.4
2014-Oct-21 03:33N 69°37' E 018°55'8 7.6
2014-Oct-21 02:33N 69°44' E 019°04'2 0.2
2014-Oct-20 12:33N 69°42' E 019°01'0 0.1
2014-Oct-20 11:33N 69°42' E 019°01'0 0.0
2014-Oct-20 10:32N 69°42' E 019°01'0 0.1
2014-Oct-20 09:33N 69°42' E 019°01'0 0.0
2014-Oct-20 08:33N 69°42' E 019°01'0 0.0
2014-Oct-20 07:33N 69°42' E 019°01'0 0.0
2014-Oct-20 06:33N 69°42' E 019°01'0 0.0
2014-Oct-20 05:33N 69°42' E 019°01'0 0.0
2014-Oct-20 04:33N 69°42' E 019°01'0 0.0
2014-Oct-20 03:33N 69°42' E 019°01'0 0.0
2014-Oct-20 02:33N 69°42' E 019°01'0 0.0
2014-Oct-20 01:33N 69°42' E 019°01'0 0.0
2014-Oct-20 00:33N 69°42' E 019°01'0 0.0
2014-Oct-19 23:33N 69°42' E 019°01'0 0.0
2014-Oct-19 22:33N 69°42' E 019°01'0 0.0
2014-Oct-19 21:33N 69°42' E 019°01'0 0.0
2014-Oct-19 20:33N 69°42' E 019°01'0 0.0
2014-Oct-19 19:33N 69°42' E 019°01'  

Dump ship's entire track history